Time;durP1;ratioP1;P1;durP2;ratioP2;P2;SDS_P1;SDS_P2;PMS_P1;PMS_P2;Temp;Humidity;BMP_temperature;BMP_pressure;BME280_temperature;BME280_humidity;BME280_pressure;Samples;Min_cycle;Max_cycle;Signal;HPM_P1;HPM_P2
2022/03/28 00:00:43;;;;;;;3.60;0.70;;;;;;;;;;5050711;28;20158;-76
2022/03/28 00:03:10;;;;;;;5.07;3.88;;;;;;;;;;5047744;28;20017;-77
2022/03/28 00:05:39;;;;;;;1.60;1.50;;;;;;;;;;5046151;28;20029;-77
2022/03/28 00:08:04;;;;;;;2.25;2.10;;;;;;;;;;5047010;28;20028;-76
2022/03/28 00:10:30;;;;;;;3.20;2.45;;;;;;;;;;5039849;28;20032;-77
2022/03/28 00:12:55;;;;;;;3.70;2.80;;;;;;;;;;5052222;28;20035;-76
2022/03/28 00:15:20;;;;;;;2.47;2.25;;;;;;;;;;5049894;28;20532;-76
2022/03/28 00:17:47;;;;;;;2.03;1.83;;;;;;;;;;5043836;28;20454;-77
2022/03/28 00:20:13;;;;;;;2.55;1.95;;;;;;;;;;5046560;28;20065;-78
2022/03/28 00:22:40;;;;;;;2.70;2.15;;;;;;;;;;5054123;28;20402;-78
2022/03/28 00:25:09;;;;;;;2.03;1.92;;;;;;;;;;5040562;28;20029;-78
2022/03/28 00:27:34;;;;;;;0.45;0.45;;;;;;;;;;5039873;28;20116;-79
2022/03/28 00:30:00;;;;;;;1.45;1.35;;;;;;;;;;5057902;28;20096;-78
2022/03/28 00:32:25;;;;;;;2.88;2.60;;;;;;;;;;5040598;28;20102;-78
2022/03/28 00:34:53;;;;;;;2.65;2.35;;;;;;;;;;5043446;28;20346;-78
2022/03/28 00:37:21;;;;;;;2.60;2.40;;;;;;;;;;5052678;28;20028;-77
2022/03/28 00:39:46;;;;;;;2.60;1.90;;;;;;;;;;5038882;28;20044;-77
2022/03/28 00:42:12;;;;;;;2.10;1.90;;;;;;;;;;5047096;28;20350;-78
2022/03/28 00:44:38;;;;;;;8.75;2.83;;;;;;;;;;5044192;28;20025;-78
2022/03/28 00:47:04;;;;;;;6.95;2.55;;;;;;;;;;5044369;28;20035;-77
2022/03/28 00:49:29;;;;;;;1.13;1.08;;;;;;;;;;5056637;28;20433;-76
2022/03/28 00:51:54;;;;;;;1.27;1.27;;;;;;;;;;5047437;28;20091;-77
2022/03/28 00:54:20;;;;;;;1.40;1.33;;;;;;;;;;5022155;28;20026;-77
2022/03/28 00:56:47;;;;;;;1.95;1.83;;;;;;;;;;5055462;28;20034;-78
2022/03/28 00:59:12;;;;;;;7.32;1.92;;;;;;;;;;5065471;28;20036;-78
2022/03/28 01:01:37;;;;;;;8.40;2.65;;;;;;;;;;5035471;28;20034;-79
2022/03/28 01:04:08;;;;;;;3.58;3.28;;;;;;;;;;5044395;28;20025;-78
2022/03/28 01:06:35;;;;;;;1.48;1.38;;;;;;;;;;5044226;28;20037;-78
2022/03/28 01:09:05;;;;;;;4.88;3.10;;;;;;;;;;5040959;28;20037;-78
2022/03/28 01:11:33;;;;;;;3.97;3.53;;;;;;;;;;5067871;28;20025;-78
2022/03/28 01:13:59;;;;;;;3.45;1.70;;;;;;;;;;5049870;28;20041;-78
2022/03/28 01:16:30;;;;;;;2.08;1.85;;;;;;;;;;5047047;28;20033;-78
2022/03/28 01:18:57;;;;;;;6.43;2.60;;;;;;;;;;5050553;28;20076;-78
2022/03/28 01:21:22;;;;;;;2.83;2.63;;;;;;;;;;5051214;28;20029;-78
2022/03/28 01:23:48;;;;;;;3.05;2.67;;;;;;;;;;5040339;28;20103;-78
2022/03/28 01:26:17;;;;;;;2.13;1.65;;;;;;;;;;5044358;28;20022;-78
2022/03/28 01:28:42;;;;;;;3.03;1.70;;;;;;;;;;5043223;28;20042;-77
2022/03/28 01:31:08;;;;;;;1.15;1.10;;;;;;;;;;5048389;28;20018;-76
2022/03/28 01:33:36;;;;;;;4.18;3.88;;;;;;;;;;5070365;28;20045;-77
2022/03/28 01:36:04;;;;;;;1.52;1.42;;;;;;;;;;5048265;28;20481;-77
2022/03/28 01:38:30;;;;;;;1.73;1.63;;;;;;;;;;5045253;28;20040;-77
2022/03/28 01:40:55;;;;;;;1.55;1.45;;;;;;;;;;5046136;28;20126;-77
2022/03/28 01:43:21;;;;;;;1.25;1.15;;;;;;;;;;5039723;28;20033;-76
2022/03/28 01:45:46;;;;;;;1.45;0.70;;;;;;;;;;5052049;28;20358;-78
2022/03/28 01:48:13;;;;;;;1.23;1.17;;;;;;;;;;5052656;28;20036;-76
2022/03/28 01:50:38;;;;;;;2.25;2.08;;;;;;;;;;5056363;28;20056;-77
2022/03/28 01:53:06;;;;;;;2.63;2.05;;;;;;;;;;5041386;28;20442;-77
2022/03/28 01:55:32;;;;;;;2.80;2.28;;;;;;;;;;5045114;28;20025;-77
2022/03/28 01:57:57;;;;;;;2.13;1.92;;;;;;;;;;5056010;28;20155;-77
2022/03/28 02:00:28;;;;;;;2.08;1.92;;;;;;;;;;5046903;28;20029;-77
2022/03/28 02:02:56;;;;;;;2.58;1.88;;;;;;;;;;5042058;28;20037;-77
2022/03/28 02:05:22;;;;;;;1.35;1.25;;;;;;;;;;5064104;28;20025;-76
2022/03/28 02:07:48;;;;;;;2.03;1.85;;;;;;;;;;5049627;28;20025;-76
2022/03/28 02:10:16;;;;;;;2.00;1.90;;;;;;;;;;5047383;28;20159;-78
2022/03/28 02:12:42;;;;;;;2.88;1.30;;;;;;;;;;5054647;28;20496;-77
2022/03/28 02:15:10;;;;;;;3.13;2.28;;;;;;;;;;5040637;28;20053;-77
2022/03/28 02:17:35;;;;;;;2.05;1.15;;;;;;;;;;5044585;28;20104;-77
2022/03/28 02:20:02;;;;;;;2.20;1.63;;;;;;;;;;5043227;28;20108;-76
2022/03/28 02:22:28;;;;;;;1.45;1.35;;;;;;;;;;5046851;28;20029;-78
2022/03/28 02:24:53;;;;;;;1.52;1.45;;;;;;;;;;5046164;28;20095;-78
2022/03/28 02:27:19;;;;;;;2.72;2.53;;;;;;;;;;5046064;28;20091;-78
2022/03/28 02:29:44;;;;;;;3.80;1.55;;;;;;;;;;5049801;28;20058;-76
2022/03/28 02:32:10;;;;;;;2.75;2.53;;;;;;;;;;5049846;28;20515;-78
2022/03/28 02:34:38;;;;;;;4.53;3.15;;;;;;;;;;5069601;28;20033;-76
2022/03/28 02:37:08;;;;;;;3.35;2.20;;;;;;;;;;5065416;28;20084;-78
2022/03/28 02:39:36;;;;;;;2.35;2.08;;;;;;;;;;5068023;28;20108;-79
2022/03/28 02:42:01;;;;;;;2.47;1.85;;;;;;;;;;5056771;28;20090;-78
2022/03/28 02:44:28;;;;;;;7.00;2.47;;;;;;;;;;5050468;28;20021;-76
2022/03/28 02:46:53;;;;;;;2.05;1.95;;;;;;;;;;5053504;28;20021;-76
2022/03/28 02:49:21;;;;;;;0.57;0.57;;;;;;;;;;5050506;28;20331;-78
2022/03/28 02:51:47;;;;;;;2.33;1.38;;;;;;;;;;5043825;28;20035;-78
2022/03/28 02:54:15;;;;;;;1.67;0.98;;;;;;;;;;5057078;28;20037;-78
2022/03/28 02:56:40;;;;;;;3.88;2.22;;;;;;;;;;5048120;28;20037;-78
2022/03/28 02:59:06;;;;;;;2.38;1.17;;;;;;;;;;5044514;28;20110;-77
2022/03/28 03:01:31;;;;;;;2.22;1.75;;;;;;;;;;5050639;28;20516;-77
2022/03/28 03:03:56;;;;;;;2.05;1.70;;;;;;;;;;5050142;28;20033;-78
2022/03/28 03:06:22;;;;;;;3.75;3.33;;;;;;;;;;5037480;28;20047;-78
2022/03/28 03:08:50;;;;;;;4.75;1.30;;;;;;;;;;5050177;28;20109;-77
2022/03/28 03:11:15;;;;;;;2.47;1.95;;;;;;;;;;5038449;28;20029;-78
2022/03/28 03:13:43;;;;;;;2.22;1.98;;;;;;;;;;5059808;28;20067;-78
2022/03/28 03:16:09;;;;;;;3.20;2.30;;;;;;;;;;5046131;28;20105;-78
2022/03/28 03:18:36;;;;;;;1.42;1.33;;;;;;;;;;5048109;28;20108;-78
2022/03/28 03:21:02;;;;;;;2.00;1.48;;;;;;;;;;5053636;28;20094;-78
2022/03/28 03:23:27;;;;;;;6.72;3.83;;;;;;;;;;5055274;28;20112;-78
2022/03/28 03:25:53;;;;;;;1.95;1.65;;;;;;;;;;5045765;28;20039;-78
2022/03/28 03:28:20;;;;;;;1.58;1.48;;;;;;;;;;5051977;28;20108;-77
2022/03/28 03:30:46;;;;;;;2.38;1.92;;;;;;;;;;5052040;28;20472;-78
2022/03/28 03:33:12;;;;;;;2.63;2.42;;;;;;;;;;5046463;28;20059;-77
2022/03/28 03:35:37;;;;;;;4.88;2.72;;;;;;;;;;5045897;28;20060;-77
2022/03/28 03:38:03;;;;;;;1.42;1.38;;;;;;;;;;5042523;28;20104;-78
2022/03/28 03:40:28;;;;;;;0.98;0.85;;;;;;;;;;5054275;28;20037;-76
2022/03/28 03:42:53;;;;;;;2.10;1.40;;;;;;;;;;5048018;28;20036;-78
2022/03/28 03:45:21;;;;;;;1.25;1.17;;;;;;;;;;5042323;28;20453;-77
2022/03/28 03:47:46;;;;;;;3.05;2.47;;;;;;;;;;5052422;28;20048;-77
2022/03/28 03:50:14;;;;;;;1.58;1.48;;;;;;;;;;5041264;28;20053;-78
2022/03/28 03:52:39;;;;;;;1.52;1.42;;;;;;;;;;5045059;28;20450;-77
2022/03/28 03:55:08;;;;;;;1.80;1.33;;;;;;;;;;5046380;28;20098;-78
2022/03/28 03:57:34;;;;;;;3.28;2.40;;;;;;;;;;5044636;28;20032;-77
2022/03/28 03:59:59;;;;;;;2.45;1.48;;;;;;;;;;5047106;28;20033;-76
2022/03/28 04:02:24;;;;;;;0.70;0.70;;;;;;;;;;5051002;28;20369;-77
2022/03/28 04:04:50;;;;;;;1.17;1.17;;;;;;;;;;5051791;28;20413;-77
2022/03/28 04:07:15;;;;;;;2.47;2.28;;;;;;;;;;5049877;28;20041;-76
2022/03/28 04:09:43;;;;;;;2.97;2.78;;;;;;;;;;5051096;28;20029;-76
2022/03/28 04:12:12;;;;;;;2.28;1.92;;;;;;;;;;5063601;28;20107;-78
2022/03/28 04:14:40;;;;;;;7.25;4.05;;;;;;;;;;5035922;28;20127;-78
2022/03/28 04:17:05;;;;;;;1.60;1.42;;;;;;;;;;5047216;28;20166;-78
2022/03/28 04:19:33;;;;;;;2.08;1.20;;;;;;;;;;5068801;28;20108;-77
2022/03/28 04:22:05;;;;;;;2.40;2.20;;;;;;;;;;5049117;28;20021;-77
2022/03/28 04:24:32;;;;;;;1.08;0.98;;;;;;;;;;5043189;28;20509;-77
2022/03/28 04:26:57;;;;;;;3.28;2.53;;;;;;;;;;5042092;28;20080;-78
2022/03/28 04:29:23;;;;;;;1.67;1.55;;;;;;;;;;5051036;28;20021;-78
2022/03/28 04:31:49;;;;;;;0.75;0.70;;;;;;;;;;5047319;28;20430;-77
2022/03/28 04:34:14;;;;;;;2.92;2.25;;;;;;;;;;5039781;28;20040;-77
2022/03/28 04:36:39;;;;;;;1.67;1.58;;;;;;;;;;5053336;28;20457;-77
2022/03/28 04:39:05;;;;;;;2.30;2.10;;;;;;;;;;5046109;28;20044;-77
2022/03/28 04:41:31;;;;;;;0.40;0.40;;;;;;;;;;5048972;28;20394;-80
2022/03/28 04:43:57;;;;;;;3.60;2.38;;;;;;;;;;5027714;28;20130;-78
2022/03/28 04:46:22;;;;;;;1.20;0.95;;;;;;;;;;5035010;28;20052;-77
2022/03/28 04:48:48;;;;;;;4.90;2.60;;;;;;;;;;5047620;28;20020;-77
2022/03/28 04:51:16;;;;;;;2.80;1.90;;;;;;;;;;5040856;28;20426;-77
2022/03/28 04:53:44;;;;;;;7.28;2.63;;;;;;;;;;5040782;28;20362;-77
2022/03/28 04:56:10;;;;;;;4.15;1.77;;;;;;;;;;5034277;28;20040;-77
2022/03/28 04:58:35;;;;;;;1.63;1.52;;;;;;;;;;5034242;28;20386;-78
2022/03/28 05:01:00;;;;;;;1.67;0.82;;;;;;;;;;5038988;28;20029;-77
2022/03/28 05:03:28;;;;;;;0.75;0.75;;;;;;;;;;5045446;28;20046;-79
2022/03/28 05:05:54;;;;;;;2.78;2.58;;;;;;;;;;5045655;28;20104;-78
2022/03/28 05:08:19;;;;;;;3.72;2.40;;;;;;;;;;5068504;28;20120;-80
2022/03/28 05:10:48;;;;;;;2.58;2.28;;;;;;;;;;5045311;28;20032;-79
2022/03/28 05:13:13;;;;;;;3.50;3.20;;;;;;;;;;5043748;28;20044;-79
2022/03/28 05:15:47;;;;;;;5.95;1.92;;;;;;;;;;5023400;28;20107;-82
2022/03/28 05:18:16;;;;;;;2.00;1.85;;;;;;;;;;5034039;28;20474;-78
2022/03/28 05:20:44;;;;;;;3.35;2.70;;;;;;;;;;5045815;28;20029;-80
2022/03/28 05:23:14;;;;;;;1.20;1.13;;;;;;;;;;5039645;28;20409;-80
2022/03/28 05:25:39;;;;;;;3.38;2.30;;;;;;;;;;5017228;28;20018;-80
2022/03/28 05:28:07;;;;;;;3.05;2.75;;;;;;;;;;5034206;28;20417;-79
2022/03/28 05:30:33;;;;;;;4.15;3.17;;;;;;;;;;5027146;28;20409;-80
2022/03/28 05:32:58;;;;;;;4.07;2.75;;;;;;;;;;5050710;28;20111;-80
2022/03/28 05:35:25;;;;;;;1.42;1.40;;;;;;;;;;5046100;28;20488;-78
2022/03/28 05:37:54;;;;;;;3.60;2.13;;;;;;;;;;5041541;28;20087;-79
2022/03/28 05:40:19;;;;;;;3.10;2.90;;;;;;;;;;5036149;28;20029;-79
2022/03/28 05:42:44;;;;;;;0.73;0.73;;;;;;;;;;5056255;28;20066;-79
2022/03/28 05:45:11;;;;;;;3.47;3.03;;;;;;;;;;5041714;28;20026;-80
2022/03/28 05:47:39;;;;;;;3.55;3.22;;;;;;;;;;5062943;28;20320;-80
2022/03/28 05:50:04;;;;;;;1.55;1.45;;;;;;;;;;5058771;28;20051;-80
2022/03/28 05:52:30;;;;;;;1.80;1.67;;;;;;;;;;5024233;28;20017;-80
2022/03/28 05:54:58;;;;;;;2.78;2.58;;;;;;;;;;5036649;28;20037;-80
2022/03/28 05:57:26;;;;;;;1.77;1.67;;;;;;;;;;5038785;28;20500;-80
2022/03/28 05:59:51;;;;;;;3.80;3.08;;;;;;;;;;5045440;28;20028;-79
2022/03/28 06:02:16;;;;;;;2.47;1.40;;;;;;;;;;5063750;28;20031;-79
2022/03/28 06:04:42;;;;;;;3.30;3.00;;;;;;;;;;5034370;28;20390;-80
2022/03/28 06:07:10;;;;;;;3.28;2.97;;;;;;;;;;5040104;28;20126;-79
2022/03/28 06:09:38;;;;;;;3.70;3.40;;;;;;;;;;5044420;28;20042;-78
2022/03/28 06:12:03;;;;;;;2.92;2.17;;;;;;;;;;5037452;28;20017;-79
2022/03/28 06:14:29;;;;;;;2.00;1.85;;;;;;;;;;5056162;28;20033;-79
2022/03/28 06:16:54;;;;;;;5.30;2.97;;;;;;;;;;5038797;28;20028;-80
2022/03/28 06:19:24;;;;;;;2.72;1.48;;;;;;;;;;5056062;28;20025;-80
2022/03/28 06:21:52;;;;;;;4.38;2.88;;;;;;;;;;5037318;28;20029;-80
2022/03/28 06:24:17;;;;;;;2.65;2.45;;;;;;;;;;5035554;28;20095;-80
2022/03/28 06:26:42;;;;;;;3.65;3.35;;;;;;;;;;5044392;28;20029;-79
2022/03/28 06:29:14;;;;;;;2.60;2.40;;;;;;;;;;5066575;28;20465;-80
2022/03/28 06:31:39;;;;;;;3.10;2.17;;;;;;;;;;5055183;28;20057;-80
2022/03/28 06:34:07;;;;;;;2.20;2.03;;;;;;;;;;5034489;28;20067;-80
2022/03/28 06:36:33;;;;;;;2.35;2.17;;;;;;;;;;5036777;28;20028;-79
2022/03/28 06:39:02;;;;;;;5.32;4.05;;;;;;;;;;5059643;28;20108;-80
2022/03/28 06:41:28;;;;;;;2.30;2.13;;;;;;;;;;5026451;28;20102;-79
2022/03/28 06:43:53;;;;;;;4.32;2.83;;;;;;;;;;5048490;28;20514;-81
2022/03/28 06:46:20;;;;;;;1.65;1.55;;;;;;;;;;5041529;28;20514;-81
2022/03/28 06:48:46;;;;;;;6.15;2.55;;;;;;;;;;5042276;28;20586;-81
2022/03/28 06:51:11;;;;;;;3.03;2.40;;;;;;;;;;5030520;28;20021;-81
2022/03/28 06:53:42;;;;;;;1.80;1.60;;;;;;;;;;5042087;28;20437;-81
2022/03/28 06:56:07;;;;;;;6.18;4.85;;;;;;;;;;5040434;28;20439;-79
2022/03/28 06:58:33;;;;;;;10.65;2.42;;;;;;;;;;5043817;28;20041;-78
2022/03/28 07:01:01;;;;;;;9.48;3.90;;;;;;;;;;5045136;28;20087;-78
2022/03/28 07:03:26;;;;;;;12.43;2.67;;;;;;;;;;5026828;28;20090;-79
2022/03/28 07:06:08;;;;;;;4.80;2.50;;;;;;;;;;5028777;28;20433;-79
2022/03/28 07:08:36;;;;;;;3.77;3.10;;;;;;;;;;5038345;28;20040;-79
2022/03/28 07:11:02;;;;;;;2.75;2.55;;;;;;;;;;5031740;28;20425;-79
2022/03/28 07:13:30;;;;;;;3.85;2.33;;;;;;;;;;5050089;28;20133;-79
2022/03/28 07:15:56;;;;;;;3.22;2.92;;;;;;;;;;5048178;28;20468;-79
2022/03/28 07:18:22;;;;;;;3.70;2.83;;;;;;;;;;5018984;28;20115;-78
2022/03/28 07:20:50;;;;;;;7.38;3.80;;;;;;;;;;5025736;28;20108;-79
2022/03/28 07:23:18;;;;;;;2.75;2.28;;;;;;;;;;5027575;28;20033;-79
2022/03/28 07:25:46;;;;;;;8.50;3.95;;;;;;;;;;5036682;28;20029;-79
2022/03/28 07:28:13;;;;;;;6.22;3.47;;;;;;;;;;5025203;28;20056;-80
2022/03/28 07:30:40;;;;;;;4.50;4.07;;;;;;;;;;5035798;28;20090;-80
2022/03/28 07:33:06;;;;;;;4.53;3.67;;;;;;;;;;5018717;28;20128;-80
2022/03/28 07:35:38;;;;;;;3.28;2.97;;;;;;;;;;5048665;28;20025;-80
2022/03/28 07:38:07;;;;;;;4.78;3.15;;;;;;;;;;5056280;28;20470;-80
2022/03/28 07:40:36;;;;;;;5.13;3.58;;;;;;;;;;5018679;28;20033;-80
2022/03/28 07:43:02;;;;;;;4.75;2.63;;;;;;;;;;5034747;28;20033;-80
2022/03/28 07:45:28;;;;;;;5.03;3.70;;;;;;;;;;5042715;28;20021;-79
2022/03/28 07:47:53;;;;;;;3.88;2.83;;;;;;;;;;5031564;28;20039;-78
2022/03/28 07:50:18;;;;;;;1.08;1.00;;;;;;;;;;5054163;28;20025;-78
2022/03/28 07:52:44;;;;;;;2.20;1.95;;;;;;;;;;5047636;28;20049;-79
2022/03/28 07:55:12;;;;;;;3.20;2.80;;;;;;;;;;5036646;28;20209;-78
2022/03/28 07:57:38;;;;;;;3.13;2.85;;;;;;;;;;5043516;28;20509;-79
2022/03/28 08:00:05;;;;;;;5.55;2.70;;;;;;;;;;5048572;28;20071;-80
2022/03/28 08:02:31;;;;;;;5.78;4.03;;;;;;;;;;5047999;28;20017;-80
2022/03/28 08:04:56;;;;;;;17.63;4.22;;;;;;;;;;5023595;28;20542;-80
2022/03/28 08:07:22;;;;;;;3.70;3.05;;;;;;;;;;5037595;28;20110;-80
2022/03/28 08:09:47;;;;;;;8.55;3.63;;;;;;;;;;5036924;28;20028;-79
2022/03/28 08:12:17;;;;;;;4.05;2.80;;;;;;;;;;5033844;28;20100;-79
2022/03/28 08:14:45;;;;;;;3.33;2.95;;;;;;;;;;5025397;28;20029;-79
2022/03/28 08:17:10;;;;;;;11.23;4.00;;;;;;;;;;5038240;28;20132;-81
2022/03/28 08:19:38;;;;;;;3.55;2.33;;;;;;;;;;5038117;28;20056;-79
2022/03/28 08:22:03;;;;;;;4.72;3.83;;;;;;;;;;5037973;28;20027;-81
2022/03/28 08:24:31;;;;;;;5.28;4.68;;;;;;;;;;5049758;28;20094;-80
2022/03/28 08:26:56;;;;;;;4.05;3.38;;;;;;;;;;5037546;28;20037;-82
2022/03/28 08:29:22;;;;;;;8.52;3.60;;;;;;;;;;5031111;28;20086;-81
2022/03/28 08:31:48;;;;;;;3.92;3.08;;;;;;;;;;5026272;28;20022;-79
2022/03/28 08:34:16;;;;;;;6.57;5.25;;;;;;;;;;5036876;28;20112;-79
2022/03/28 08:36:41;;;;;;;3.90;2.50;;;;;;;;;;5083137;28;20088;-79
2022/03/28 08:39:07;;;;;;;4.93;4.05;;;;;;;;;;5052514;28;20033;-79
2022/03/28 08:41:39;;;;;;;4.82;2.70;;;;;;;;;;5049815;28;20055;-78
2022/03/28 08:44:05;;;;;;;6.80;3.65;;;;;;;;;;5046785;28;20050;-79
2022/03/28 08:46:30;;;;;;;6.75;3.45;;;;;;;;;;5023047;28;20059;-81
2022/03/28 08:48:59;;;;;;;6.88;4.22;;;;;;;;;;5062986;28;20033;-80
2022/03/28 08:51:25;;;;;;;4.40;3.17;;;;;;;;;;5034556;28;20573;-79
2022/03/28 08:53:50;;;;;;;5.35;2.65;;;;;;;;;;5041098;28;20025;-80
2022/03/28 08:56:28;;;;;;;5.35;3.30;;;;;;;;;;5032308;28;20028;-80
2022/03/28 08:59:04;;;;;;;5.22;3.85;;;;;;;;;;5045946;28;20075;-80
2022/03/28 09:01:34;;;;;;;5.22;3.53;;;;;;;;;;5046152;28;20037;-82
2022/03/28 09:04:15;;;;;;;4.25;3.78;;;;;;;;;;5047094;28;20146;-83
2022/03/28 09:06:44;;;;;;;4.00;3.55;;;;;;;;;;5047205;28;20035;-81
2022/03/28 09:09:42;;;;;;;5.30;3.50;;;;;;;;;;5059459;28;20033;-80
2022/03/28 09:12:21;;;;;;;5.00;2.58;;;;;;;;;;5047492;28;20446;-79
2022/03/28 09:14:48;;;;;;;6.15;3.97;;;;;;;;;;5054090;28;20091;-80
2022/03/28 09:17:18;;;;;;;9.65;4.72;;;;;;;;;;5054812;28;20068;-80
2022/03/28 09:20:15;;;;;;;7.05;3.38;;;;;;;;;;5050854;28;20029;-79
2022/03/28 09:22:43;;;;;;;4.75;3.67;;;;;;;;;;5051106;28;20032;-78
2022/03/28 09:25:10;;;;;;;4.75;3.70;;;;;;;;;;5053703;28;20056;-78
2022/03/28 09:27:40;;;;;;;4.30;2.20;;;;;;;;;;5045380;28;20025;-79
2022/03/28 09:30:16;;;;;;;4.25;3.08;;;;;;;;;;5052815;28;20028;-79
2022/03/28 09:32:47;;;;;;;2.83;2.20;;;;;;;;;;5038010;28;20113;-80
2022/03/28 09:35:23;;;;;;;3.95;2.55;;;;;;;;;;5043237;28;20030;-79
2022/03/28 09:37:48;;;;;;;6.75;3.50;;;;;;;;;;5045272;28;20029;-80
2022/03/28 09:40:24;;;;;;;5.18;3.28;;;;;;;;;;5039811;28;20372;-80
2022/03/28 09:42:50;;;;;;;3.38;2.58;;;;;;;;;;5046840;28;20029;-80
2022/03/28 09:45:24;;;;;;;5.70;2.97;;;;;;;;;;5040049;28;20496;-80
2022/03/28 09:47:55;;;;;;;4.25;2.60;;;;;;;;;;5039164;28;20034;-80
2022/03/28 09:50:31;;;;;;;4.47;3.17;;;;;;;;;;5042718;28;20040;-80
2022/03/28 09:53:08;;;;;;;5.00;3.50;;;;;;;;;;5054734;28;20465;-79
2022/03/28 09:55:48;;;;;;;3.97;3.00;;;;;;;;;;5054750;28;20055;-81
2022/03/28 09:58:46;;;;;;;4.60;3.08;;;;;;;;;;5030882;28;20025;-80
2022/03/28 10:01:21;;;;;;;5.57;3.17;;;;;;;;;;5041331;28;20340;-79
2022/03/28 10:03:52;;;;;;;6.15;3.33;;;;;;;;;;5049309;28;20099;-79
2022/03/28 10:06:20;;;;;;;4.47;3.33;;;;;;;;;;5049070;28;20053;-79
2022/03/28 10:08:46;;;;;;;5.97;3.42;;;;;;;;;;5052264;28;20123;-79
2022/03/28 10:11:16;;;;;;;5.18;2.92;;;;;;;;;;5059515;28;20107;-78
2022/03/28 10:13:41;;;;;;;4.50;3.47;;;;;;;;;;5062478;28;20035;-79
2022/03/28 10:16:08;;;;;;;3.70;2.83;;;;;;;;;;5048995;28;20029;-79
2022/03/28 10:18:38;;;;;;;7.68;3.70;;;;;;;;;;5041480;28;20525;-79
2022/03/28 10:21:10;;;;;;;4.90;3.75;;;;;;;;;;5053259;28;20025;-79
2022/03/28 10:23:42;;;;;;;5.13;2.50;;;;;;;;;;5046224;28;20152;-79
2022/03/28 10:26:09;;;;;;;5.32;3.28;;;;;;;;;;5064474;28;20131;-79
2022/03/28 10:28:35;;;;;;;6.95;3.78;;;;;;;;;;5061379;28;20033;-79
2022/03/28 10:31:16;;;;;;;5.95;3.45;;;;;;;;;;5035216;28;20021;-80
2022/03/28 10:33:51;;;;;;;6.30;2.17;;;;;;;;;;5054902;28;20070;-79
2022/03/28 10:36:31;;;;;;;6.38;3.53;;;;;;;;;;5054830;28;20279;-80
2022/03/28 10:39:38;;;;;;;7.13;4.93;;;;;;;;;;5051515;28;20114;-80
2022/03/28 10:42:13;;;;;;;6.22;3.33;;;;;;;;;;5027520;28;20041;-80
2022/03/28 10:44:45;;;;;;;8.23;3.40;;;;;;;;;;5043677;28;20025;-79
2022/03/28 10:47:13;;;;;;;;;;;;;;;;;;5049026;28;20033;-78
2022/03/28 10:49:41;;;;;;;2.92;2.20;;;;;;;;;;5049509;28;19913;-79
2022/03/28 10:52:16;;;;;;;5.47;3.22;;;;;;;;;;5051602;28;20028;-81
2022/03/28 10:54:41;;;;;;;6.50;3.63;;;;;;;;;;5051315;28;20083;-80
2022/03/28 10:57:27;;;;;;;6.03;3.85;;;;;;;;;;5050931;28;20440;-81
2022/03/28 11:00:09;;;;;;;4.72;3.20;;;;;;;;;;5038059;28;20036;-80
2022/03/28 11:02:36;;;;;;;4.70;2.95;;;;;;;;;;5045867;28;20029;-80
2022/03/28 11:05:15;;;;;;;4.57;3.08;;;;;;;;;;5052236;28;20032;-81
2022/03/28 11:07:40;;;;;;;5.15;3.38;;;;;;;;;;5052701;28;20103;-81
2022/03/28 11:10:10;;;;;;;8.30;4.57;;;;;;;;;;5049611;28;20108;-80
2022/03/28 11:12:42;;;;;;;3.58;2.67;;;;;;;;;;5047752;28;20426;-80
2022/03/28 11:15:11;;;;;;;7.85;3.70;;;;;;;;;;5045759;28;20048;-83
2022/03/28 11:17:44;;;;;;;7.57;3.40;;;;;;;;;;5054008;28;20036;-79
2022/03/28 11:20:18;;;;;;;6.63;4.13;;;;;;;;;;5049788;28;20033;-79
2022/03/28 11:22:47;;;;;;;7.85;4.28;;;;;;;;;;5053249;28;20029;-78
2022/03/28 11:25:35;;;;;;;3.92;3.05;;;;;;;;;;5048808;28;20029;-80
2022/03/28 11:28:02;;;;;;;4.80;3.53;;;;;;;;;;5048453;28;20382;-79
2022/03/28 11:30:30;;;;;;;5.63;3.10;;;;;;;;;;5048959;28;20032;-81
2022/03/28 11:33:04;;;;;;;3.45;2.83;;;;;;;;;;5048500;28;20114;-81
2022/03/28 11:35:30;;;;;;;2.88;2.65;;;;;;;;;;5045612;28;20049;-81
2022/03/28 11:37:55;;;;;;;4.03;2.78;;;;;;;;;;5050664;28;20025;-80
2022/03/28 11:40:20;;;;;;;5.72;2.70;;;;;;;;;;5045892;28;20028;-79
2022/03/28 11:43:16;;;;;;;5.95;3.15;;;;;;;;;;5052519;28;20025;-79
2022/03/28 11:45:47;;;;;;;5.72;2.88;;;;;;;;;;5054079;28;20025;-81
2022/03/28 11:48:18;;;;;;;5.55;3.28;;;;;;;;;;5051549;28;20021;-80
2022/03/28 11:50:48;;;;;;;9.75;4.85;;;;;;;;;;5047052;28;20447;-79
2022/03/28 11:53:18;;;;;;;5.85;3.25;;;;;;;;;;5052382;28;20470;-79
2022/03/28 11:55:52;;;;;;;5.72;4.03;;;;;;;;;;5048358;28;20476;-77
2022/03/28 11:58:28;;;;;;;12.32;4.25;;;;;;;;;;5051210;28;20029;-77
2022/03/28 12:01:10;;;;;;;7.78;4.22;;;;;;;;;;5039445;28;20040;-77
2022/03/28 12:03:49;;;;;;;5.18;3.70;;;;;;;;;;5046786;28;20021;-78
2022/03/28 12:06:31;;;;;;;4.43;2.90;;;;;;;;;;5039554;28;20386;-76
2022/03/28 12:08:57;;;;;;;5.63;4.53;;;;;;;;;;5050801;28;20032;-78
2022/03/28 12:11:25;;;;;;;5.22;2.90;;;;;;;;;;5050807;28;20021;-77
2022/03/28 12:13:52;;;;;;;6.32;4.00;;;;;;;;;;5054719;28;20099;-77
2022/03/28 12:16:19;;;;;;;8.73;4.25;;;;;;;;;;5043727;28;20149;-77
2022/03/28 12:18:48;;;;;;;4.15;2.70;;;;;;;;;;5042032;28;20028;-78
2022/03/28 12:21:13;;;;;;;8.50;3.78;;;;;;;;;;5051229;28;21910;-78
2022/03/28 12:23:39;;;;;;;4.95;2.95;;;;;;;;;;5052550;28;20112;-79
2022/03/28 12:26:05;;;;;;;6.05;3.58;;;;;;;;;;5053496;28;20020;-79
2022/03/28 12:28:35;;;;;;;5.97;3.45;;;;;;;;;;5050413;28;20350;-79
2022/03/28 12:31:05;;;;;;;6.25;3.17;;;;;;;;;;5043788;28;20055;-79
2022/03/28 12:34:06;;;;;;;5.13;3.00;;;;;;;;;;5052556;28;20044;-79
2022/03/28 12:36:34;;;;;;;6.63;4.35;;;;;;;;;;5044670;28;20036;-77
2022/03/28 12:39:06;;;;;;;5.53;3.03;;;;;;;;;;5047653;28;20037;-78
2022/03/28 12:41:39;;;;;;;4.43;2.17;;;;;;;;;;5042732;28;20171;-78
2022/03/28 12:44:04;;;;;;;5.88;3.72;;;;;;;;;;5045385;28;20020;-78
2022/03/28 12:46:30;;;;;;;5.60;3.60;;;;;;;;;;5033329;28;20025;-77
2022/03/28 12:49:07;;;;;;;4.88;3.17;;;;;;;;;;5045157;28;20086;-78
2022/03/28 12:51:34;;;;;;;3.33;2.78;;;;;;;;;;5047262;28;20031;-78
2022/03/28 12:54:05;;;;;;;3.85;2.78;;;;;;;;;;5046668;28;20354;-78
2022/03/28 12:56:55;;;;;;;4.20;2.78;;;;;;;;;;5040734;28;20089;-77
2022/03/28 12:59:25;;;;;;;7.32;3.17;;;;;;;;;;5035686;28;20032;-77
2022/03/28 13:02:05;;;;;;;7.22;2.88;;;;;;;;;;5031381;28;20030;-77
2022/03/28 13:04:44;;;;;;;4.45;2.70;;;;;;;;;;5040533;28;20079;-77
2022/03/28 13:07:17;;;;;;;3.25;2.78;;;;;;;;;;5043791;28;20029;-79
2022/03/28 13:09:54;;;;;;;6.90;3.67;;;;;;;;;;5051134;28;20442;-78
2022/03/28 13:12:19;;;;;;;7.63;3.97;;;;;;;;;;5034723;28;20339;-77
2022/03/28 13:14:52;;;;;;;5.65;3.70;;;;;;;;;;5036617;28;20020;-77
2022/03/28 13:17:19;;;;;;;6.53;3.20;;;;;;;;;;5031974;28;20112;-78
2022/03/28 13:19:56;;;;;;;19.08;5.05;;;;;;;;;;5040773;28;20036;-77
2022/03/28 13:22:28;;;;;;;6.72;3.80;;;;;;;;;;5043533;28;20083;-77
2022/03/28 13:25:06;;;;;;;4.25;2.95;;;;;;;;;;5035877;28;20497;-77
2022/03/28 13:30:21;;;;;;;5.25;3.75;;;;;;;;;;5118040;22;20048;-77
2022/03/28 13:32:47;;;;;;;4.95;2.80;;;;;;;;;;5056141;28;20024;-77
2022/03/28 13:35:17;;;;;;;6.40;3.28;;;;;;;;;;5073313;28;20028;-77
2022/03/28 13:38:00;;;;;;;8.23;4.78;;;;;;;;;;5073636;28;20029;-77
2022/03/28 13:40:27;;;;;;;5.15;4.28;;;;;;;;;;5030031;28;20458;-77
2022/03/28 13:42:53;;;;;;;3.97;2.92;;;;;;;;;;5035450;28;20368;-76
2022/03/28 13:45:19;;;;;;;2.33;2.13;;;;;;;;;;5072787;28;20462;-77
2022/03/28 13:47:45;;;;;;;3.70;3.10;;;;;;;;;;5055530;28;20056;-76
2022/03/28 13:50:11;;;;;;;4.97;3.30;;;;;;;;;;5055822;28;20036;-77
2022/03/28 13:52:37;;;;;;;4.20;3.80;;;;;;;;;;5054707;28;20044;-78
2022/03/28 13:55:05;;;;;;;5.13;3.70;;;;;;;;;;5055578;28;20405;-77
2022/03/28 13:57:33;;;;;;;4.82;4.00;;;;;;;;;;5075620;28;20055;-77
2022/03/28 13:59:58;;;;;;;3.95;2.55;;;;;;;;;;5076692;28;20418;-77
2022/03/28 14:02:24;;;;;;;4.90;3.75;;;;;;;;;;5059186;28;20024;-77
2022/03/28 14:04:49;;;;;;;6.85;3.55;;;;;;;;;;5059085;28;20031;-77
2022/03/28 14:07:14;;;;;;;8.93;4.25;;;;;;;;;;5039327;28;20389;-77
2022/03/28 14:09:40;;;;;;;4.13;2.75;;;;;;;;;;5076244;28;20020;-76
2022/03/28 14:12:06;;;;;;;5.57;3.38;;;;;;;;;;5058935;28;20025;-77
2022/03/28 14:14:32;;;;;;;8.80;4.28;;;;;;;;;;5076674;28;20475;-76
2022/03/28 14:16:57;;;;;;;6.85;4.20;;;;;;;;;;5076354;28;20051;-76
2022/03/28 14:19:23;;;;;;;4.53;3.38;;;;;;;;;;5058599;28;20457;-77
2022/03/28 14:21:55;;;;;;;4.72;3.13;;;;;;;;;;5076508;28;20434;-77
2022/03/28 14:24:21;;;;;;;4.28;3.33;;;;;;;;;;5076240;28;20031;-76
2022/03/28 14:26:52;;;;;;;3.58;2.88;;;;;;;;;;5058446;28;20047;-77
2022/03/28 14:29:18;;;;;;;3.92;2.92;;;;;;;;;;5058391;28;20024;-77
2022/03/28 14:31:43;;;;;;;6.80;3.58;;;;;;;;;;5035650;28;20048;-77
2022/03/28 14:34:09;;;;;;;6.90;3.67;;;;;;;;;;5041862;28;20102;-76
2022/03/28 14:36:34;;;;;;;4.88;2.75;;;;;;;;;;5076123;28;20024;-78
2022/03/28 14:38:59;;;;;;;2.00;1.80;;;;;;;;;;5058075;28;20043;-77
2022/03/28 14:41:25;;;;;;;3.88;3.47;;;;;;;;;;5058302;28;20449;-77
2022/03/28 14:43:50;;;;;;;4.88;3.42;;;;;;;;;;5075913;28;20104;-77
2022/03/28 14:49:02;;;;;;;4.43;3.25;;;;;;;;;;5075669;28;20537;-77
2022/03/28 14:51:27;;;;;;;5.35;3.50;;;;;;;;;;5075807;28;20430;-77
2022/03/28 14:53:53;;;;;;;5.30;2.53;;;;;;;;;;5075747;28;20016;-78
2022/03/28 14:56:19;;;;;;;6.53;3.65;;;;;;;;;;5076156;28;20106;-78